Time;durP1;ratioP1;P1;durP2;ratioP2;P2;SDS_P1;SDS_P2;PMS_P1;PMS_P2;Temp;Humidity;BMP_temperature;BMP_pressure;BME280_temperature;BME280_humidity;BME280_pressure;Samples;Min_cycle;Max_cycle;Signal;HPM_P1;HPM_P2
2023/06/01 00:01:46;;;;;;;5.53;3.78;;;15.40;79.60;;;;;;5038000;28;20022;-81
2023/06/01 00:04:13;;;;;;;4.38;3.20;;;15.30;79.60;;;;;;5045865;28;20021;-82
2023/06/01 00:06:39;;;;;;;4.10;3.47;;;15.30;79.90;;;;;;5070931;28;20036;-81
2023/06/01 00:09:05;;;;;;;3.88;2.90;;;15.20;80.10;;;;;;5039443;28;20029;-81
2023/06/01 00:11:31;;;;;;;3.70;3.38;;;15.20;80.30;;;;;;5037885;28;20033;-81
2023/06/01 00:13:57;;;;;;;5.35;3.70;;;15.20;80.60;;;;;;5037199;28;20112;-82
2023/06/01 00:16:23;;;;;;;4.90;3.35;;;15.10;80.80;;;;;;5056066;28;20033;-82
2023/06/01 00:18:49;;;;;;;8.55;4.25;;;15.10;81.00;;;;;;5056091;28;20025;-80
2023/06/01 00:21:15;;;;;;;4.60;3.60;;;15.10;81.30;;;;;;5053766;28;20056;-81
2023/06/01 00:23:40;;;;;;;4.05;3.30;;;15.10;81.40;;;;;;5051368;28;20044;-81
2023/06/01 00:26:07;;;;;;;4.45;4.00;;;15.10;81.50;;;;;;5051839;28;20025;-81
2023/06/01 00:28:33;;;;;;;5.82;4.50;;;15.10;81.80;;;;;;5037358;28;20455;-82
2023/06/01 00:30:58;;;;;;;6.57;4.50;;;15.10;81.90;;;;;;5035853;28;20036;-80
2023/06/01 00:33:24;;;;;;;4.63;3.63;;;15.10;82.10;;;;;;5043593;28;20028;-81
2023/06/01 00:35:50;;;;;;;5.47;3.60;;;15.00;82.30;;;;;;5047179;28;20489;-81
2023/06/01 00:38:15;;;;;;;5.22;3.65;;;15.00;82.60;;;;;;5047672;28;20017;-81
2023/06/01 00:40:43;;;;;;;5.45;3.58;;;14.90;82.70;;;;;;5036986;28;20029;-81
2023/06/01 00:43:08;;;;;;;4.60;3.00;;;14.90;82.90;;;;;;5036305;28;20025;-81
2023/06/01 00:45:34;;;;;;;4.57;3.70;;;14.80;83.10;;;;;;5036992;28;20079;-81
2023/06/01 00:48:00;;;;;;;4.50;4.05;;;14.80;83.50;;;;;;5039215;28;20486;-81
2023/06/01 00:50:26;;;;;;;4.90;3.22;;;14.70;83.80;;;;;;5037265;28;20512;-82
2023/06/01 00:52:52;;;;;;;4.55;3.47;;;14.70;84.00;;;;;;5038074;28;20098;-81
2023/06/01 00:55:20;;;;;;;5.80;3.33;;;14.70;84.30;;;;;;5053472;28;20037;-80
2023/06/01 00:57:48;;;;;;;5.47;3.50;;;14.70;84.50;;;;;;5045290;28;20532;-80
2023/06/01 01:00:14;;;;;;;6.22;4.45;;;14.70;84.60;;;;;;5041084;28;20056;-80
2023/06/01 01:02:40;;;;;;;7.22;3.75;;;14.60;84.70;;;;;;5052592;28;20056;-81
2023/06/01 01:05:11;;;;;;;6.38;3.72;;;14.50;84.80;;;;;;5057866;28;20077;-82
2023/06/01 01:08:02;;;;;;;6.43;3.95;;;14.50;85.10;;;;;;5048489;28;20033;-81
2023/06/01 01:10:51;;;;;;;4.82;3.92;;;14.40;85.30;;;;;;5041073;28;20390;-81
2023/06/01 01:13:30;;;;;;;6.75;4.10;;;14.40;85.60;;;;;;5034108;28;20048;-81
2023/06/01 01:16:24;;;;;;;4.35;3.60;;;14.30;85.90;;;;;;5037375;28;20038;-82
2023/06/01 01:19:08;;;;;;;4.72;3.05;;;14.30;86.30;;;;;;5037483;28;20359;-81
2023/06/01 01:21:41;;;;;;;4.18;3.45;;;14.30;86.60;;;;;;5040265;28;20033;-81
2023/06/01 01:24:18;;;;;;;4.25;3.00;;;14.30;87.00;;;;;;5037275;28;20064;-81
2023/06/01 01:27:15;;;;;;;4.40;3.40;;;14.20;87.20;;;;;;5044836;28;20040;-80
2023/06/01 01:29:45;;;;;;;5.85;3.78;;;14.30;87.50;;;;;;5045100;28;20441;-81
2023/06/01 01:32:12;;;;;;;4.75;3.42;;;14.20;87.60;;;;;;5043233;28;20028;-80
2023/06/01 01:34:40;;;;;;;5.18;3.38;;;14.20;87.80;;;;;;5067903;28;20029;-81
2023/06/01 01:37:06;;;;;;;7.18;4.25;;;14.20;88.00;;;;;;5040383;28;20095;-81
2023/06/01 01:39:32;;;;;;;4.18;3.60;;;14.20;88.10;;;;;;5041309;28;20038;-82
2023/06/01 01:41:57;;;;;;;7.15;3.90;;;14.20;88.50;;;;;;5041051;28;20059;-80
2023/06/01 01:44:23;;;;;;;6.00;4.28;;;14.10;88.70;;;;;;5040234;28;20025;-81
2023/06/01 01:47:09;;;;;;;4.43;3.55;;;14.10;89.10;;;;;;5041065;28;20498;-81
2023/06/01 01:49:41;;;;;;;4.55;3.35;;;14.00;89.40;;;;;;5042349;28;20037;-82
2023/06/01 01:52:10;;;;;;;;;;;13.90;89.90;;;;;;5041472;28;20052;-82
2023/06/01 01:54:42;;;;;;;3.92;2.90;;;13.90;90.20;;;;;;5041378;28;20285;-82
2023/06/01 01:57:09;;;;;;;3.97;3.03;;;13.80;90.30;;;;;;5036953;28;20085;-82
2023/06/01 01:59:36;;;;;;;4.00;2.85;;;13.80;90.50;;;;;;5037941;28;20060;-81
2023/06/01 02:02:02;;;;;;;3.67;2.95;;;13.80;90.60;;;;;;5037033;28;20044;-81
2023/06/01 02:04:29;;;;;;;2.72;2.25;;;13.80;90.70;;;;;;5046005;28;20079;-80
2023/06/01 02:06:54;;;;;;;3.42;2.83;;;13.70;90.80;;;;;;5025577;28;20045;-81
2023/06/01 02:09:20;;;;;;;4.80;3.70;;;13.70;90.80;;;;;;5039892;28;20025;-81
2023/06/01 02:11:45;;;;;;;4.15;3.30;;;13.70;90.90;;;;;;5038222;28;20071;-80
2023/06/01 02:14:11;;;;;;;4.68;3.30;;;13.70;91.10;;;;;;5020239;28;20038;-81
2023/06/01 02:16:37;;;;;;;4.85;3.88;;;13.70;91.30;;;;;;5036555;28;20026;-82
2023/06/01 02:19:03;;;;;;;5.78;4.10;;;13.70;91.30;;;;;;5029837;28;20022;-82
2023/06/01 02:21:29;;;;;;;5.82;4.45;;;13.60;91.40;;;;;;5037848;28;20048;-82
2023/06/01 02:23:55;;;;;;;5.65;4.53;;;13.60;91.40;;;;;;5020466;28;20104;-82
2023/06/01 02:26:21;;;;;;;4.07;2.97;;;13.60;91.60;;;;;;5037448;28;20541;-81
2023/06/01 02:28:47;;;;;;;5.28;3.83;;;13.60;91.80;;;;;;5029571;28;20075;-82
2023/06/01 02:31:16;;;;;;;4.13;3.33;;;13.60;91.80;;;;;;5038802;28;20383;-81
2023/06/01 02:33:42;;;;;;;4.05;3.58;;;13.50;91.90;;;;;;5055335;28;20029;-81
2023/06/01 02:36:07;;;;;;;5.70;3.67;;;13.50;91.90;;;;;;5062306;28;20160;-81
2023/06/01 02:38:33;;;;;;;4.80;3.58;;;13.50;92.00;;;;;;5045290;28;20025;-81
2023/06/01 02:40:59;;;;;;;4.05;3.15;;;13.50;92.00;;;;;;5038295;28;20041;-81
2023/06/01 02:43:24;;;;;;;4.70;3.55;;;13.50;92.10;;;;;;5040248;28;20031;-81
2023/06/01 02:45:50;;;;;;;4.13;3.40;;;13.50;92.20;;;;;;5038447;28;20444;-82
2023/06/01 02:48:16;;;;;;;6.10;4.50;;;13.50;92.20;;;;;;5037845;28;20029;-81
2023/06/01 02:50:41;;;;;;;5.15;3.90;;;13.50;92.30;;;;;;5038045;28;20034;-81
2023/06/01 02:53:07;;;;;;;8.18;3.88;;;13.50;92.40;;;;;;5037652;28;20056;-82
2023/06/01 02:55:33;;;;;;;5.70;4.13;;;13.40;92.40;;;;;;5038097;28;20041;-81
2023/06/01 02:57:58;;;;;;;5.68;4.47;;;13.40;92.50;;;;;;5043747;28;20025;-80
2023/06/01 03:00:24;;;;;;;4.43;3.85;;;13.40;92.60;;;;;;5055001;28;20051;-80
2023/06/01 03:02:52;;;;;;;4.43;3.40;;;13.30;92.80;;;;;;5036732;28;20041;-81
2023/06/01 03:05:21;;;;;;;4.30;3.53;;;13.30;92.90;;;;;;5043450;28;20473;-81
2023/06/01 03:07:47;;;;;;;4.72;3.70;;;13.20;93.10;;;;;;5066853;28;20081;-81
2023/06/01 03:10:12;;;;;;;4.15;3.03;;;13.20;93.20;;;;;;5042186;28;20009;-81
2023/06/01 03:12:39;;;;;;;3.58;2.75;;;13.20;93.30;;;;;;5057783;28;20026;-80
2023/06/01 03:15:05;;;;;;;3.08;2.78;;;13.20;93.30;;;;;;5056238;28;20025;-80
2023/06/01 03:17:33;;;;;;;3.00;2.40;;;13.30;93.40;;;;;;5029583;28;20363;-82
2023/06/01 03:20:00;;;;;;;3.30;2.55;;;13.30;93.50;;;;;;5028974;28;20017;-81
2023/06/01 03:22:25;;;;;;;2.80;2.58;;;13.40;93.40;;;;;;5031718;28;20398;-79
2023/06/01 03:24:52;;;;;;;2.80;2.55;;;13.40;93.30;;;;;;5042457;28;20024;-82
2023/06/01 03:27:19;;;;;;;3.28;2.88;;;13.40;93.20;;;;;;5032143;28;20035;-81
2023/06/01 03:29:45;;;;;;;2.97;2.67;;;13.50;93.10;;;;;;5039377;28;20022;-81
2023/06/01 03:32:11;;;;;;;4.88;2.90;;;13.50;93.00;;;;;;5022929;28;20588;-81
2023/06/01 03:34:37;;;;;;;3.70;2.70;;;13.50;92.90;;;;;;5054795;28;20029;-80
2023/06/01 03:37:07;;;;;;;2.95;2.65;;;13.50;93.00;;;;;;5038528;28;20053;-81
2023/06/01 03:39:34;;;;;;;5.10;3.10;;;13.50;92.90;;;;;;5038419;28;20454;-81
2023/06/01 03:42:00;;;;;;;4.13;2.88;;;13.50;92.90;;;;;;5040929;28;20264;-81
2023/06/01 03:44:25;;;;;;;3.50;2.97;;;13.50;92.90;;;;;;5046391;28;20052;-81
2023/06/01 03:46:51;;;;;;;4.43;3.33;;;13.50;93.00;;;;;;5044479;28;20393;-81
2023/06/01 03:49:17;;;;;;;4.05;3.38;;;13.50;93.00;;;;;;5040836;28;20033;-83
2023/06/01 03:51:42;;;;;;;5.82;2.78;;;13.40;93.10;;;;;;5046884;28;20030;-81
2023/06/01 03:54:08;;;;;;;4.03;3.00;;;13.40;93.20;;;;;;5036951;28;20160;-80
2023/06/01 03:56:35;;;;;;;3.85;2.58;;;13.30;93.30;;;;;;5038659;28;20025;-81
2023/06/01 03:59:01;;;;;;;5.20;3.05;;;13.40;93.30;;;;;;5043028;28;20102;-81
2023/06/01 04:01:29;;;;;;;3.40;2.65;;;13.40;93.30;;;;;;5041192;28;20053;-82
2023/06/01 04:03:56;;;;;;;4.32;3.10;;;13.40;93.20;;;;;;5048521;28;20147;-81
2023/06/01 04:06:23;;;;;;;4.22;2.90;;;13.40;93.20;;;;;;5061535;28;20036;-80
2023/06/01 04:08:55;;;;;;;2.78;2.20;;;13.50;93.20;;;;;;5038932;28;20017;-80
2023/06/01 04:11:21;;;;;;;4.00;2.83;;;13.60;93.30;;;;;;5037469;28;20033;-81
2023/06/01 04:13:48;;;;;;;3.05;2.40;;;13.70;93.00;;;;;;5037797;28;20116;-82
2023/06/01 04:16:15;;;;;;;3.60;2.70;;;13.70;92.90;;;;;;5036202;28;20521;-80
2023/06/01 04:18:40;;;;;;;3.33;2.50;;;13.80;92.80;;;;;;5037059;28;20063;-81
2023/06/01 04:21:09;;;;;;;3.00;2.50;;;13.80;92.50;;;;;;5044073;28;20220;-81
2023/06/01 04:23:37;;;;;;;3.70;2.80;;;13.90;92.30;;;;;;5040825;28;20022;-81
2023/06/01 04:26:03;;;;;;;3.72;3.05;;;13.90;92.20;;;;;;5043023;28;20104;-81
2023/06/01 04:28:29;;;;;;;3.75;3.00;;;13.90;92.20;;;;;;5045167;28;20032;-81
2023/06/01 04:30:55;;;;;;;5.53;3.10;;;14.00;92.10;;;;;;5044575;28;20014;-81
2023/06/01 04:33:24;;;;;;;4.53;3.42;;;14.00;92.00;;;;;;5039178;28;20083;-81
2023/06/01 04:35:52;;;;;;;2.80;2.50;;;14.00;91.90;;;;;;5044781;28;20092;-81
2023/06/01 04:38:24;;;;;;;4.20;3.25;;;14.10;91.90;;;;;;5036828;28;20053;-81
2023/06/01 04:40:53;;;;;;;3.42;3.00;;;14.10;91.80;;;;;;5037625;28;20017;-81
2023/06/01 04:43:19;;;;;;;3.08;2.67;;;14.20;91.60;;;;;;5053709;28;20085;-81
2023/06/01 04:45:45;;;;;;;3.08;2.78;;;14.30;91.50;;;;;;5055807;28;20014;-81
2023/06/01 04:48:11;;;;;;;2.75;2.47;;;14.40;91.50;;;;;;5055306;28;20018;-81
2023/06/01 04:50:37;;;;;;;3.28;2.15;;;14.50;91.30;;;;;;5054146;28;20113;-81
2023/06/01 04:53:03;;;;;;;2.25;2.05;;;14.60;91.20;;;;;;5054261;28;20033;-82
2023/06/01 04:55:30;;;;;;;2.25;2.05;;;14.70;90.90;;;;;;5043443;28;20038;-81
2023/06/01 04:57:57;;;;;;;1.60;1.50;;;14.90;90.70;;;;;;5041370;28;20089;-81
2023/06/01 05:00:23;;;;;;;2.15;1.95;;;15.00;90.40;;;;;;5049289;28;20048;-80
2023/06/01 05:02:49;;;;;;;2.60;1.95;;;;;;;;;;5060306;28;20021;-81
2023/06/01 05:05:16;;;;;;;4.10;2.55;;;15.30;88.70;;;;;;5056448;28;20025;-81
2023/06/01 05:07:42;;;;;;;4.30;2.85;;;15.80;89.10;;;;;;5041817;28;20028;-81
2023/06/01 05:10:10;;;;;;;4.82;2.95;;;17.40;85.70;;;;;;5041275;28;20285;-81
2023/06/01 05:12:37;;;;;;;4.13;3.10;;;19.00;79.40;;;;;;5041233;28;20040;-82
2023/06/01 05:15:09;;;;;;;5.13;3.58;;;20.60;73.40;;;;;;5041318;28;20482;-83
2023/06/01 05:17:35;;;;;;;3.40;2.83;;;21.80;68.00;;;;;;5041136;28;20049;-83
2023/06/01 05:20:01;;;;;;;3.00;2.70;;;22.50;64.60;;;;;;5041178;28;20048;-82
2023/06/01 05:22:27;;;;;;;4.35;3.22;;;23.30;61.90;;;;;;5041364;28;20076;-82
2023/06/01 05:24:52;;;;;;;3.78;3.10;;;24.00;59.30;;;;;;5042548;28;20022;-81
2023/06/01 05:27:18;;;;;;;3.78;3.03;;;24.50;57.50;;;;;;5041880;28;20025;-83
2023/06/01 05:29:44;;;;;;;3.10;2.47;;;25.10;55.80;;;;;;5042581;28;20057;-83
2023/06/01 05:32:10;;;;;;;3.50;3.13;;;25.90;54.50;;;;;;5056145;28;20065;-83
2023/06/01 05:34:35;;;;;;;2.78;2.58;;;26.20;52.60;;;;;;5051931;28;20394;-82
2023/06/01 05:37:02;;;;;;;2.50;2.30;;;26.50;51.80;;;;;;5023450;28;20085;-82
2023/06/01 05:39:28;;;;;;;5.28;3.42;;;26.80;51.50;;;;;;5039759;28;20099;-83
2023/06/01 05:41:55;;;;;;;4.47;3.22;;;27.00;50.20;;;;;;5039067;28;20030;-82
2023/06/01 05:44:21;;;;;;;4.45;3.13;;;27.10;50.10;;;;;;5036710;28;20034;-83
2023/06/01 05:46:47;;;;;;;3.55;3.13;;;27.10;50.10;;;;;;5039172;28;20100;-81
2023/06/01 05:49:13;;;;;;;5.35;3.08;;;27.20;49.40;;;;;;5028844;28;20057;-82
2023/06/01 05:51:40;;;;;;;5.50;4.13;;;27.30;49.00;;;;;;5029705;28;20417;-83
2023/06/01 05:54:06;;;;;;;3.50;3.05;;;27.40;48.80;;;;;;5025817;28;20108;-83
2023/06/01 05:56:32;;;;;;;4.25;3.75;;;27.50;48.60;;;;;;5023850;28;20459;-82
2023/06/01 05:58:59;;;;;;;3.17;2.88;;;27.70;48.30;;;;;;5028637;28;20030;-82
2023/06/01 06:01:27;;;;;;;2.75;2.55;;;27.90;47.90;;;;;;5019679;28;20026;-83
2023/06/01 06:03:52;;;;;;;2.85;2.40;;;28.30;47.00;;;;;;5046318;28;20017;-82
2023/06/01 06:06:18;;;;;;;2.60;2.40;;;28.90;46.90;;;;;;5044010;28;20040;-82
2023/06/01 06:08:44;;;;;;;2.70;2.50;;;29.60;45.30;;;;;;5042572;28;20478;-82
2023/06/01 06:11:10;;;;;;;2.47;2.28;;;29.70;44.50;;;;;;5040147;28;20393;-83
2023/06/01 06:13:36;;;;;;;2.10;2.00;;;;;;;;;;5039803;28;20071;-84
2023/06/01 06:16:01;;;;;;;2.38;2.17;;;30.30;43.60;;;;;;5038271;28;20073;-83
2023/06/01 06:18:27;;;;;;;3.38;2.10;;;30.60;43.50;;;;;;5036998;28;20026;-81
2023/06/01 06:20:52;;;;;;;2.17;1.98;;;30.80;42.90;;;;;;5044737;28;20044;-83
2023/06/01 06:23:18;;;;;;;2.58;2.20;;;31.10;42.70;;;;;;5054735;28;20029;-83
2023/06/01 06:25:45;;;;;;;1.95;1.85;;;30.90;42.40;;;;;;5055074;28;20040;-85
2023/06/01 06:28:11;;;;;;;2.42;2.22;;;31.10;42.40;;;;;;5055482;28;20044;-82
2023/06/01 06:30:37;;;;;;;2.20;2.00;;;31.40;41.70;;;;;;5056046;28;20045;-81
2023/06/01 06:33:02;;;;;;;1.88;1.77;;;31.50;41.60;;;;;;5047842;28;20082;-81
2023/06/01 06:35:28;;;;;;;1.75;1.65;;;31.60;41.60;;;;;;5053718;28;20107;-83
2023/06/01 06:37:54;;;;;;;1.95;1.85;;;31.80;41.20;;;;;;5040672;28;20033;-82
2023/06/01 06:40:20;;;;;;;1.80;1.70;;;31.70;41.10;;;;;;5045411;28;20021;-80
2023/06/01 06:42:46;;;;;;;1.52;1.52;;;31.60;41.30;;;;;;5051037;28;20044;-82
2023/06/01 06:45:12;;;;;;;1.77;1.67;;;31.80;41.10;;;;;;5051500;28;20160;-82
2023/06/01 06:47:37;;;;;;;3.30;2.90;;;31.70;40.80;;;;;;5049060;28;20033;-82
2023/06/01 06:50:03;;;;;;;3.38;3.10;;;31.20;40.90;;;;;;5047104;28;20710;-82
2023/06/01 06:52:29;;;;;;;3.78;3.45;;;30.80;41.60;;;;;;5052018;28;20417;-83
2023/06/01 06:54:55;;;;;;;4.22;3.83;;;30.60;42.10;;;;;;5048822;28;20036;-83
2023/06/01 06:57:21;;;;;;;3.70;3.25;;;30.10;42.50;;;;;;5049755;28;20077;-83
2023/06/01 06:59:46;;;;;;;3.88;3.47;;;29.70;44.20;;;;;;5042043;28;20030;-81
2023/06/01 07:02:12;;;;;;;4.45;3.63;;;30.00;43.80;;;;;;5040797;28;20017;-83
2023/06/01 07:04:39;;;;;;;4.00;3.40;;;30.00;42.70;;;;;;5049823;28;20037;-83
2023/06/01 07:07:05;;;;;;;4.47;3.47;;;29.80;43.10;;;;;;5049067;28;20052;-83
2023/06/01 07:09:32;;;;;;;4.10;3.65;;;29.70;43.60;;;;;;5041410;28;20500;-83
2023/06/01 07:11:58;;;;;;;4.88;3.92;;;29.70;43.40;;;;;;5039320;28;20116;-83
2023/06/01 07:14:24;;;;;;;4.30;3.42;;;28.80;43.60;;;;;;5039440;28;20076;-82
2023/06/01 07:16:50;;;;;;;5.55;3.83;;;27.10;45.50;;;;;;5037256;28;20017;-80
2023/06/01 07:19:16;;;;;;;5.45;3.85;;;25.00;48.70;;;;;;5038931;28;20041;-84
2023/06/01 07:21:43;;;;;;;5.35;4.22;;;23.20;52.60;;;;;;5047810;28;20074;-83
2023/06/01 07:24:09;;;;;;;4.22;3.65;;;22.10;55.60;;;;;;5047120;28;20041;-82
2023/06/01 07:26:35;;;;;;;4.75;3.50;;;21.30;57.70;;;;;;5041137;28;20071;-83
2023/06/01 07:29:01;;;;;;;6.78;5.30;;;20.90;59.10;;;;;;5039870;28;20085;-81
2023/06/01 07:31:27;;;;;;;7.50;4.22;;;20.60;60.00;;;;;;5039498;28;20510;-81
2023/06/01 07:33:55;;;;;;;5.00;4.00;;;20.50;61.20;;;;;;5039201;28;20116;-82
2023/06/01 07:36:23;;;;;;;4.63;3.50;;;20.40;61.60;;;;;;5045004;28;20022;-83
2023/06/01 07:38:50;;;;;;;4.13;3.40;;;20.30;61.90;;;;;;5040593;28;20022;-83
2023/06/01 07:41:16;;;;;;;4.75;3.55;;;20.30;62.20;;;;;;5041290;28;20123;-82
2023/06/01 07:43:42;;;;;;;3.03;2.72;;;20.40;62.40;;;;;;5049227;28;20048;-81
2023/06/01 07:46:07;;;;;;;5.28;2.83;;;20.40;62.50;;;;;;5053619;28;20025;-81
2023/06/01 07:48:36;;;;;;;4.10;3.70;;;20.50;62.30;;;;;;5048342;28;20036;-81
2023/06/01 07:51:03;;;;;;;9.13;4.22;;;20.50;62.40;;;;;;5042199;28;20484;-81
2023/06/01 07:53:28;;;;;;;6.05;3.72;;;20.50;62.70;;;;;;5042118;28;20048;-81
2023/06/01 07:55:55;;;;;;;11.50;5.07;;;20.40;63.30;;;;;;5041576;28;20025;-80
2023/06/01 07:58:21;;;;;;;10.48;5.20;;;20.40;62.80;;;;;;5040803;28;20079;-81
2023/06/01 08:00:48;;;;;;;7.50;4.13;;;20.20;63.00;;;;;;5039864;28;20039;-80
2023/06/01 08:03:14;;;;;;;7.57;4.85;;;20.10;64.10;;;;;;5037452;28;20052;-82
2023/06/01 08:05:44;;;;;;;5.10;3.72;;;20.20;64.40;;;;;;5048759;28;20490;-81
2023/06/01 08:08:10;;;;;;;4.93;3.75;;;20.20;64.40;;;;;;5049385;28;20085;-80
2023/06/01 08:10:38;;;;;;;5.18;3.90;;;20.40;64.30;;;;;;5040176;28;20032;-81
2023/06/01 08:13:04;;;;;;;4.72;4.07;;;20.50;63.70;;;;;;5040167;28;20030;-80
2023/06/01 08:15:30;;;;;;;6.70;4.25;;;20.60;63.70;;;;;;5038473;28;20044;-80
2023/06/01 08:17:57;;;;;;;7.10;3.78;;;20.70;64.00;;;;;;5036840;28;20029;-81
2023/06/01 08:20:23;;;;;;;5.57;4.03;;;20.90;63.00;;;;;;5038976;28;20060;-81
2023/06/01 08:22:50;;;;;;;6.03;4.15;;;21.10;62.50;;;;;;5040547;28;20026;-80
2023/06/01 08:25:16;;;;;;;10.07;4.40;;;21.20;61.90;;;;;;5038762;28;20017;-80
2023/06/01 08:27:42;;;;;;;7.50;4.47;;;21.40;61.70;;;;;;5039983;28;20434;-80
2023/06/01 08:30:08;;;;;;;11.65;4.85;;;21.40;61.90;;;;;;5039262;28;20029;-80
2023/06/01 08:32:34;;;;;;;7.20;4.50;;;21.40;62.00;;;;;;5042829;28;20112;-81
2023/06/01 08:35:00;;;;;;;6.13;4.18;;;21.40;61.40;;;;;;5053192;28;20351;-81
2023/06/01 08:37:26;;;;;;;6.97;4.38;;;21.50;61.40;;;;;;5040018;28;20031;-80
2023/06/01 08:39:52;;;;;;;9.65;5.50;;;21.70;61.10;;;;;;5039489;28;20466;-80
2023/06/01 08:42:29;;;;;;;7.50;5.05;;;21.70;60.20;;;;;;5039954;28;20025;-80
2023/06/01 08:44:57;;;;;;;5.85;4.57;;;21.70;60.10;;;;;;5043512;28;20032;-80
2023/06/01 08:47:27;;;;;;;6.22;4.57;;;21.80;60.40;;;;;;5050381;28;20105;-80
2023/06/01 08:49:56;;;;;;;7.53;4.80;;;22.00;60.20;;;;;;5050601;28;20014;-81
2023/06/01 08:52:28;;;;;;;5.10;4.35;;;22.10;59.50;;;;;;5054070;28;20029;-80
2023/06/01 08:54:54;;;;;;;4.78;4.22;;;22.10;59.60;;;;;;5055279;28;20033;-81
2023/06/01 08:57:20;;;;;;;9.77;5.35;;;22.20;59.50;;;;;;5055098;28;20022;-80
2023/06/01 08:59:46;;;;;;;8.27;5.65;;;22.30;59.20;;;;;;5053319;28;20033;-80
2023/06/01 09:02:15;;;;;;;6.35;4.80;;;22.40;58.60;;;;;;5054992;28;20017;-81
2023/06/01 09:04:44;;;;;;;5.03;3.90;;;22.20;59.50;;;;;;5060763;28;20093;-82
2023/06/01 09:07:11;;;;;;;5.28;3.97;;;22.40;59.60;;;;;;5052753;28;20576;-83
2023/06/01 09:09:36;;;;;;;9.18;4.25;;;22.60;59.30;;;;;;5053232;28;20064;-80
2023/06/01 09:12:23;;;;;;;5.03;4.43;;;22.80;58.60;;;;;;5046921;28;20112;-81
2023/06/01 09:14:50;;;;;;;7.18;4.32;;;22.90;58.20;;;;;;5042283;28;20021;-81
2023/06/01 09:17:23;;;;;;;6.07;4.15;;;23.00;58.00;;;;;;5042417;28;20017;-80
2023/06/01 09:19:55;;;;;;;7.25;4.85;;;22.90;57.80;;;;;;5039590;28;20021;-80
2023/06/01 09:22:21;;;;;;;6.88;5.00;;;23.00;57.90;;;;;;5039205;28;20075;-82
2023/06/01 09:25:07;;;;;;;6.75;5.07;;;23.00;56.90;;;;;;5038989;28;20033;-80
2023/06/01 09:27:50;;;;;;;5.50;4.22;;;23.00;57.60;;;;;;5040126;28;20044;-81
2023/06/01 09:30:18;;;;;;;5.28;4.05;;;23.10;57.50;;;;;;5046217;28;20029;-80
2023/06/01 09:32:50;;;;;;;7.45;5.00;;;23.40;57.50;;;;;;5051112;28;20025;-81
2023/06/01 09:35:16;;;;;;;6.82;4.93;;;23.70;56.70;;;;;;5056588;28;20045;-80
2023/06/01 09:37:58;;;;;;;7.05;5.00;;;23.80;56.40;;;;;;5049689;28;20029;-80
2023/06/01 09:40:24;;;;;;;7.65;4.88;;;23.80;56.30;;;;;;5049144;28;20112;-81
2023/06/01 09:42:50;;;;;;;5.43;4.30;;;23.80;55.90;;;;;;5055272;28;20033;-81
2023/06/01 09:45:23;;;;;;;7.47;4.43;;;23.80;55.80;;;;;;5047294;28;20045;-80
2023/06/01 09:47:50;;;;;;;7.65;4.43;;;23.90;55.90;;;;;;5055761;28;20061;-79
2023/06/01 09:50:35;;;;;;;11.02;5.00;;;24.00;55.50;;;;;;5048667;28;20060;-81
2023/06/01 09:53:01;;;;;;;5.07;4.57;;;24.20;55.10;;;;;;5051294;28;20099;-81
2023/06/01 09:55:28;;;;;;;6.03;4.57;;;;;;;;;;5041342;28;20191;-81
2023/06/01 09:58:18;;;;;;;4.30;3.65;;;24.50;54.10;;;;;;5041630;28;20060;-80
2023/06/01 10:00:46;;;;;;;5.60;4.78;;;24.80;54.10;;;;;;5041535;28;20386;-79
2023/06/01 10:03:13;;;;;;;7.05;4.75;;;24.80;53.40;;;;;;5041060;28;20036;-79
2023/06/01 10:05:39;;;;;;;6.60;4.60;;;24.70;53.20;;;;;;5046380;28;20390;-79
2023/06/01 10:08:05;;;;;;;5.82;4.38;;;24.70;53.70;;;;;;5039943;28;20048;-80
2023/06/01 10:10:32;;;;;;;7.15;5.30;;;24.90;53.00;;;;;;5040915;28;20021;-81
2023/06/01 10:12:58;;;;;;;8.50;5.15;;;25.10;52.10;;;;;;5041254;28;20060;-81
2023/06/01 10:15:24;;;;;;;6.47;4.18;;;25.10;51.40;;;;;;5039317;28;20032;-81
2023/06/01 10:17:50;;;;;;;6.45;4.90;;;25.00;52.00;;;;;;5039592;28;20018;-81
2023/06/01 10:20:16;;;;;;;8.45;4.72;;;25.00;52.00;;;;;;5040391;28;20024;-80
2023/06/01 10:22:42;;;;;;;7.47;4.53;;;25.00;51.30;;;;;;5040984;28;20021;-81
2023/06/01 10:25:11;;;;;;;6.60;3.97;;;24.90;51.20;;;;;;5041475;28;20029;-81
2023/06/01 10:27:59;;;;;;;5.38;4.20;;;25.00;51.20;;;;;;5041627;28;20029;-81
2023/06/01 10:30:25;;;;;;;5.20;4.40;;;25.10;50.70;;;;;;5040810;28;20029;-81
2023/06/01 10:32:53;;;;;;;7.13;4.57;;;25.50;50.70;;;;;;5043402;28;20127;-80
2023/06/01 10:35:48;;;;;;;7.45;4.30;;;25.70;50.10;;;;;;5046505;28;20040;-80
2023/06/01 10:38:14;;;;;;;7.97;5.28;;;25.80;49.40;;;;;;5041775;28;20029;-81
2023/06/01 10:40:43;;;;;;;4.95;4.40;;;26.00;48.70;;;;;;5045484;28;20021;-80
2023/06/01 10:43:38;;;;;;;5.55;4.10;;;26.10;47.70;;;;;;5043727;28;20079;-81
2023/06/01 10:46:32;;;;;;;5.78;4.35;;;26.20;47.90;;;;;;5040628;28;20459;-81
2023/06/01 10:48:58;;;;;;;9.20;5.05;;;26.20;47.60;;;;;;5042789;28;20545;-81
2023/06/01 10:51:25;;;;;;;5.50;4.80;;;26.20;47.40;;;;;;5040346;28;20060;-80
2023/06/01 10:53:51;;;;;;;5.28;4.20;;;26.30;47.60;;;;;;5038880;28;20036;-80
2023/06/01 10:56:20;;;;;;;6.82;4.57;;;26.20;46.90;;;;;;5041724;28;20075;-82
2023/06/01 10:58:47;;;;;;;6.45;4.40;;;26.20;46.80;;;;;;5041926;28;20025;-81
2023/06/01 11:01:22;;;;;;;6.20;4.18;;;26.20;46.90;;;;;;5040171;28;20057;-79
2023/06/01 11:03:50;;;;;;;5.20;4.50;;;26.20;47.30;;;;;;5047870;28;20087;-80
2023/06/01 11:06:28;;;;;;;7.50;4.72;;;26.30;46.50;;;;;;5046935;28;20037;-80
2023/06/01 11:08:56;;;;;;;4.85;3.88;;;26.20;46.60;;;;;;5040012;28;20124;-80
2023/06/01 11:11:23;;;;;;;6.38;4.15;;;26.20;47.20;;;;;;5046319;28;20018;-81
2023/06/01 11:14:10;;;;;;;5.15;4.60;;;26.50;46.50;;;;;;5051507;28;20025;-79
2023/06/01 11:16:36;;;;;;;4.07;3.67;;;26.50;46.50;;;;;;5039299;28;20556;-81
2023/06/01 11:19:03;;;;;;;5.38;4.32;;;26.60;46.90;;;;;;5039767;28;20033;-80
2023/06/01 11:21:40;;;;;;;8.55;4.47;;;26.80;46.40;;;;;;5037476;28;20040;-82
2023/06/01 11:24:18;;;;;;;5.22;4.28;;;26.90;45.90;;;;;;5047910;28;20044;-81
2023/06/01 11:26:46;;;;;;;7.82;4.60;;;26.70;45.60;;;;;;5044345;28;20505;-80
2023/06/01 11:29:18;;;;;;;5.53;4.82;;;26.70;45.50;;;;;;5046434;28;20036;-81
2023/06/01 11:31:49;;;;;;;6.60;4.70;;;26.70;45.50;;;;;;5041989;28;20172;-81
2023/06/01 11:34:20;;;;;;;6.70;4.10;;;26.80;45.70;;;;;;5044275;28;20043;-81
2023/06/01 11:36:50;;;;;;;4.22;3.70;;;26.80;45.30;;;;;;5048802;28;20084;-81
2023/06/01 11:39:23;;;;;;;5.00;4.47;;;26.90;44.90;;;;;;5038103;28;20419;-81
2023/06/01 11:42:10;;;;;;;4.88;4.47;;;26.80;45.60;;;;;;5048640;28;20041;-81
2023/06/01 11:44:38;;;;;;;5.95;4.47;;;26.80;45.50;;;;;;5041323;28;20025;-81
2023/06/01 11:47:05;;;;;;;8.98;4.63;;;26.90;45.30;;;;;;5040964;28;20033;-80
2023/06/01 11:49:41;;;;;;;7.55;4.45;;;26.90;44.90;;;;;;5039343;28;20056;-80
2023/06/01 11:52:09;;;;;;;6.28;4.50;;;26.90;44.70;;;;;;5039736;28;20025;-81
2023/06/01 11:54:36;;;;;;;5.18;4.20;;;26.70;45.30;;;;;;5038073;28;20029;-80
2023/06/01 11:57:03;;;;;;;6.38;4.80;;;26.80;45.40;;;;;;5039448;28;20108;-81
2023/06/01 11:59:46;;;;;;;5.95;4.75;;;26.90;45.10;;;;;;5040096;28;20022;-80
2023/06/01 12:02:24;;;;;;;4.78;4.35;;;26.90;44.90;;;;;;5042467;28;20025;-80
2023/06/01 12:05:01;;;;;;;5.28;4.07;;;27.00;44.90;;;;;;5038428;28;20101;-82
2023/06/01 12:07:27;;;;;;;4.25;3.85;;;27.10;44.80;;;;;;5038275;28;20030;-80
2023/06/01 12:09:53;;;;;;;4.95;4.25;;;27.50;44.50;;;;;;5039319;28;20061;-80
2023/06/01 12:12:25;;;;;;;5.18;3.90;;;27.80;44.30;;;;;;5039965;28;20138;-81
2023/06/01 12:14:52;;;;;;;4.43;4.03;;;28.30;43.70;;;;;;5038408;28;20434;-80
2023/06/01 12:17:18;;;;;;;6.82;4.85;;;28.40;42.60;;;;;;5039240;28;20382;-80
2023/06/01 12:19:46;;;;;;;5.25;4.75;;;28.30;42.30;;;;;;5036857;28;20074;-81
2023/06/01 12:22:12;;;;;;;4.45;3.78;;;28.20;42.50;;;;;;5039393;28;20037;-81
2023/06/01 12:24:38;;;;;;;4.30;3.90;;;28.20;43.40;;;;;;5040997;28;20029;-81
2023/06/01 12:27:16;;;;;;;5.10;4.60;;;28.40;43.20;;;;;;5038930;28;20464;-82
2023/06/01 12:29:47;;;;;;;5.22;4.70;;;28.60;42.10;;;;;;5038557;28;20034;-81
2023/06/01 12:32:15;;;;;;;4.97;4.05;;;28.60;42.40;;;;;;5043156;28;20083;-81
2023/06/01 12:34:48;;;;;;;3.70;3.40;;;28.60;42.70;;;;;;5055057;28;20045;-81
2023/06/01 12:37:18;;;;;;;4.15;3.83;;;28.70;42.40;;;;;;5043934;28;20120;-81
2023/06/01 12:39:52;;;;;;;5.57;4.30;;;28.90;42.10;;;;;;5041406;28;20021;-80
2023/06/01 12:42:17;;;;;;;6.65;4.68;;;28.80;41.60;;;;;;5049014;28;20005;-80
2023/06/01 12:44:46;;;;;;;4.53;4.07;;;28.60;42.00;;;;;;5040932;28;20048;-80
2023/06/01 12:47:12;;;;;;;4.07;3.78;;;28.40;42.20;;;;;;5042920;28;20105;-80
2023/06/01 12:49:39;;;;;;;6.85;4.55;;;28.30;42.30;;;;;;5036753;28;20056;-79
2023/06/01 12:52:05;;;;;;;4.65;3.90;;;28.20;42.50;;;;;;5038779;28;20026;-80
2023/06/01 12:54:31;;;;;;;4.78;3.90;;;28.00;43.00;;;;;;5035702;28;20040;-80